sensor_id;sensor_type;location;lat;lon;timestamp;pressure;altitude;pressure_sealevel;temperature;humidity
14295;BME280;7231;59.370;18.016;2023-05-25T00:02:03;101117.06;;;18.00;53.13
14295;BME280;7231;59.370;18.016;2023-05-25T00:04:32;101101.13;;;17.95;52.99
14295;BME280;7231;59.370;18.016;2023-05-25T00:07:01;101114.41;;;17.98;53.10
14295;BME280;7231;59.370;18.016;2023-05-25T00:09:29;101114.41;;;17.98;53.19
14295;BME280;7231;59.370;18.016;2023-05-25T00:11:59;101108.22;;;17.98;53.29
14295;BME280;7231;59.370;18.016;2023-05-25T00:14:27;101108.22;;;17.98;53.36
14295;BME280;7231;59.370;18.016;2023-05-25T00:16:56;101114.38;;;17.94;53.58
14295;BME280;7231;59.370;18.016;2023-05-25T00:19:29;101109.97;;;17.91;53.77
14295;BME280;7231;59.370;18.016;2023-05-25T00:21:59;101110.84;;;17.92;53.97
14295;BME280;7231;59.370;18.016;2023-05-25T00:24:28;101106.41;;;17.89;54.02
14295;BME280;7231;59.370;18.016;2023-05-25T00:26:56;101108.19;;;17.87;54.19
14295;BME280;7231;59.370;18.016;2023-05-25T00:29:25;101110.84;;;17.86;54.43
14295;BME280;7231;59.370;18.016;2023-05-25T00:31:53;101117.91;;;17.82;54.24
14295;BME280;7231;59.370;18.016;2023-05-25T00:34:21;101113.47;;;17.82;54.41
14295;BME280;7231;59.370;18.016;2023-05-25T00:36:50;101106.38;;;17.80;54.74
14295;BME280;7231;59.370;18.016;2023-05-25T00:39:18;101061.19;;;17.49;54.68
14295;BME280;7231;59.370;18.016;2023-05-25T00:41:48;101109.91;;;17.73;54.91
14295;BME280;7231;59.370;18.016;2023-05-25T00:44:16;101104.59;;;17.70;54.84
14295;BME280;7231;59.370;18.016;2023-05-25T00:46:50;101096.56;;;17.62;55.26
14295;BME280;7231;59.370;18.016;2023-05-25T00:49:20;101093.03;;;17.63;55.15
14295;BME280;7231;59.370;18.016;2023-05-25T00:51:50;101093.91;;;17.59;55.68
14295;BME280;7231;59.370;18.016;2023-05-25T00:54:19;101109.75;;;17.44;56.15
14295;BME280;7231;59.370;18.016;2023-05-25T00:56:51;101103.47;;;17.20;57.62
14295;BME280;7231;59.370;18.016;2023-05-25T00:59:34;101091.84;;;16.94;58.52
14295;BME280;7231;59.370;18.016;2023-05-25T01:02:09;101062.56;;;16.70;58.98
14295;BME280;7231;59.370;18.016;2023-05-25T01:04:40;101054.50;;;16.61;59.25
14295;BME280;7231;59.370;18.016;2023-05-25T01:07:16;101096.25;;;16.95;59.94
14295;BME280;7231;59.370;18.016;2023-05-25T01:09:45;101107.78;;;17.02;59.35
14295;BME280;7231;59.370;18.016;2023-05-25T01:12:15;101067.03;;;16.81;59.60
14295;BME280;7231;59.370;18.016;2023-05-25T01:14:45;101104.28;;;17.06;59.50
14295;BME280;7231;59.370;18.016;2023-05-25T01:17:16;101107.81;;;17.06;60.11
14295;BME280;7231;59.370;18.016;2023-05-25T01:19:46;101106.94;;;17.07;59.64
14295;BME280;7231;59.370;18.016;2023-05-25T01:22:39;101088.34;;;16.98;59.61
14295;BME280;7231;59.370;18.016;2023-05-25T01:25:11;101102.50;;;17.06;59.52
14295;BME280;7231;59.370;18.016;2023-05-25T01:27:43;101098.09;;;17.05;59.67
14295;BME280;7231;59.370;18.016;2023-05-25T01:30:15;101083.91;;;16.94;59.76
14295;BME280;7231;59.370;18.016;2023-05-25T01:32:44;101098.91;;;16.97;59.75
14295;BME280;7231;59.370;18.016;2023-05-25T01:35:13;101108.66;;;17.02;59.76
14295;BME280;7231;59.370;18.016;2023-05-25T01:37:46;101099.84;;;17.02;60.13
14295;BME280;7231;59.370;18.016;2023-05-25T01:40:14;101102.47;;;17.00;60.08
14295;BME280;7231;59.370;18.016;2023-05-25T01:42:42;101108.66;;;16.99;60.27
14295;BME280;7231;59.370;18.016;2023-05-25T01:45:12;101099.81;;;16.97;60.33
14295;BME280;7231;59.370;18.016;2023-05-25T01:47:44;101113.91;;;16.95;60.63
14295;BME280;7231;59.370;18.016;2023-05-25T01:50:18;101105.03;;;16.88;60.52
14295;BME280;7231;59.370;18.016;2023-05-25T01:52:56;101117.44;;;16.92;60.92
14295;BME280;7231;59.370;18.016;2023-05-25T01:55:28;101058.03;;;16.61;60.82
14295;BME280;7231;59.370;18.016;2023-05-25T01:57:59;101119.16;;;16.84;60.97
14295;BME280;7231;59.370;18.016;2023-05-25T02:00:30;101120.06;;;16.87;60.99
14295;BME280;7231;59.370;18.016;2023-05-25T02:02:59;101118.28;;;16.86;61.02
14295;BME280;7231;59.370;18.016;2023-05-25T02:05:27;101118.25;;;16.83;61.19
14295;BME280;7231;59.370;18.016;2023-05-25T02:07:57;101101.44;;;16.77;61.75
14295;BME280;7231;59.370;18.016;2023-05-25T02:10:25;101127.94;;;16.80;61.59
14295;BME280;7231;59.370;18.016;2023-05-25T02:12:53;101118.19;;;16.76;61.85
14295;BME280;7231;59.370;18.016;2023-05-25T02:15:21;101106.66;;;16.68;61.94
14295;BME280;7231;59.370;18.016;2023-05-25T02:17:49;101116.41;;;16.72;61.95
14295;BME280;7231;59.370;18.016;2023-05-25T02:20:17;101051.69;;;16.36;62.30
14295;BME280;7231;59.370;18.016;2023-05-25T02:22:45;101111.97;;;16.68;62.41
14295;BME280;7231;59.370;18.016;2023-05-25T02:25:14;101111.06;;;16.66;62.52
14295;BME280;7231;59.370;18.016;2023-05-25T02:27:42;101092.41;;;16.55;62.58
14295;BME280;7231;59.370;18.016;2023-05-25T02:30:11;101105.69;;;16.60;62.89
14295;BME280;7231;59.370;18.016;2023-05-25T02:32:39;101102.16;;;16.58;63.04
14295;BME280;7231;59.370;18.016;2023-05-25T02:35:08;101102.13;;;16.56;63.31
14295;BME280;7231;59.370;18.016;2023-05-25T02:37:36;101104.78;;;16.56;63.06
14295;BME280;7231;59.370;18.016;2023-05-25T02:40:05;101104.75;;;16.53;63.41
14295;BME280;7231;59.370;18.016;2023-05-25T02:42:36;101110.03;;;16.51;63.43
14295;BME280;7231;59.370;18.016;2023-05-25T02:45:06;101123.25;;;16.50;63.61
14295;BME280;7231;59.370;18.016;2023-05-25T02:47:36;101127.66;;;16.48;63.60
14295;BME280;7231;59.370;18.016;2023-05-25T02:50:05;101114.34;;;16.40;63.63
14295;BME280;7231;59.370;18.016;2023-05-25T02:52:33;101112.66;;;16.47;63.83
14295;BME280;7231;59.370;18.016;2023-05-25T02:55:01;101120.56;;;16.42;63.64
14295;BME280;7231;59.370;18.016;2023-05-25T02:57:29;101130.25;;;16.40;63.60
14295;BME280;7231;59.370;18.016;2023-05-25T02:59:58;101038.94;;;15.91;63.79
14295;BME280;7231;59.370;18.016;2023-05-25T03:02:27;101130.22;;;16.37;63.85
14295;BME280;7231;59.370;18.016;2023-05-25T03:04:56;101053.16;;;16.01;63.52
14295;BME280;7231;59.370;18.016;2023-05-25T03:07:28;100993.72;;;15.61;63.53
14295;BME280;7231;59.370;18.016;2023-05-25T03:09:57;101118.59;;;16.23;63.69
14295;BME280;7231;59.370;18.016;2023-05-25T03:12:25;101079.63;;;16.04;63.63
14295;BME280;7231;59.370;18.016;2023-05-25T03:14:53;101134.56;;;16.32;63.66
14295;BME280;7231;59.370;18.016;2023-05-25T03:17:22;101123.97;;;16.31;63.64
14295;BME280;7231;59.370;18.016;2023-05-25T03:19:50;101122.25;;;16.34;63.45
14295;BME280;7231;59.370;18.016;2023-05-25T03:22:19;101117.66;;;16.15;63.69
14295;BME280;7231;59.370;18.016;2023-05-25T03:24:47;101131.03;;;16.30;63.80
14295;BME280;7231;59.370;18.016;2023-05-25T03:27:15;101108.00;;;16.20;63.55
14295;BME280;7231;59.370;18.016;2023-05-25T03:29:44;101119.50;;;16.23;63.42
14295;BME280;7231;59.370;18.016;2023-05-25T03:32:11;101120.34;;;16.21;63.69
14295;BME280;7231;59.370;18.016;2023-05-25T03:34:41;101132.72;;;16.22;63.81
14295;BME280;7231;59.370;18.016;2023-05-25T03:37:11;101136.19;;;16.18;63.89
14295;BME280;7231;59.370;18.016;2023-05-25T03:39:38;101128.22;;;16.13;63.96
14295;BME280;7231;59.370;18.016;2023-05-25T03:42:07;101129.94;;;16.08;64.12
14295;BME280;7231;59.370;18.016;2023-05-25T03:44:35;101132.50;;;16.02;64.50
14295;BME280;7231;59.370;18.016;2023-05-25T03:47:07;101106.78;;;15.87;64.61
14295;BME280;7231;59.370;18.016;2023-05-25T03:49:35;101133.34;;;15.98;64.42
14295;BME280;7231;59.370;18.016;2023-05-25T03:52:05;101125.41;;;15.97;64.43
14295;BME280;7231;59.370;18.016;2023-05-25T03:54:33;101103.19;;;15.79;64.57
14295;BME280;7231;59.370;18.016;2023-05-25T03:57:01;101133.41;;;16.03;64.46
14295;BME280;7231;59.370;18.016;2023-05-25T03:59:30;101134.25;;;15.99;64.42
14295;BME280;7231;59.370;18.016;2023-05-25T04:01:57;101144.78;;;15.96;64.53
14295;BME280;7231;59.370;18.016;2023-05-25T04:04:25;101137.69;;;15.93;64.61
14295;BME280;7231;59.370;18.016;2023-05-25T04:06:55;101138.59;;;15.94;64.64
14295;BME280;7231;59.370;18.016;2023-05-25T04:09:24;101139.44;;;15.91;64.87
14295;BME280;7231;59.370;18.016;2023-05-25T04:11:52;101142.09;;;15.91;64.80
14295;BME280;7231;59.370;18.016;2023-05-25T04:14:21;101150.91;;;15.91;65.11
14295;BME280;7231;59.370;18.016;2023-05-25T04:16:49;101146.53;;;15.94;64.84
14295;BME280;7231;59.370;18.016;2023-05-25T04:19:17;101150.03;;;15.93;65.04
14295;BME280;7231;59.370;18.016;2023-05-25T04:21:45;101161.44;;;15.88;65.27
14295;BME280;7231;59.370;18.016;2023-05-25T04:24:13;101155.25;;;15.86;65.28
14295;BME280;7231;59.370;18.016;2023-05-25T04:26:43;101164.03;;;15.82;65.41
14295;BME280;7231;59.370;18.016;2023-05-25T04:29:11;101163.13;;;15.82;65.26
14295;BME280;7231;59.370;18.016;2023-05-25T04:31:40;101164.91;;;15.81;65.43
14295;BME280;7231;59.370;18.016;2023-05-25T04:34:09;101183.47;;;15.86;65.47
14295;BME280;7231;59.370;18.016;2023-05-25T04:36:37;101166.75;;;15.90;65.64
14295;BME280;7231;59.370;18.016;2023-05-25T04:39:08;101167.72;;;15.97;65.45
14295;BME280;7231;59.370;18.016;2023-05-25T04:41:36;101170.41;;;16.00;65.26
14295;BME280;7231;59.370;18.016;2023-05-25T04:44:06;101175.69;;;16.01;65.29
14295;BME280;7231;59.370;18.016;2023-05-25T04:46:36;101188.06;;;16.04;65.19
14295;BME280;7231;59.370;18.016;2023-05-25T04:49:05;101189.00;;;16.07;65.27
14295;BME280;7231;59.370;18.016;2023-05-25T04:51:34;101189.03;;;16.12;65.10
14295;BME280;7231;59.370;18.016;2023-05-25T04:54:03;101162.44;;;15.98;64.87
14295;BME280;7231;59.370;18.016;2023-05-25T04:56:32;101190.91;;;16.20;65.03
14295;BME280;7231;59.370;18.016;2023-05-25T04:58:59;101188.22;;;16.17;65.09
14295;BME280;7231;59.370;18.016;2023-05-25T05:01:29;101188.16;;;16.11;65.26
14295;BME280;7231;59.370;18.016;2023-05-25T05:03:57;101200.41;;;16.03;65.44
14295;BME280;7231;59.370;18.016;2023-05-25T05:06:25;101192.47;;;16.02;65.42
14295;BME280;7231;59.370;18.016;2023-05-25T05:08:53;101191.59;;;16.03;65.52
14295;BME280;7231;59.370;18.016;2023-05-25T05:11:21;101192.50;;;16.05;65.53
14295;BME280;7231;59.370;18.016;2023-05-25T05:13:49;101198.75;;;16.11;65.46
14295;BME280;7231;59.370;18.016;2023-05-25T05:16:17;101196.16;;;16.16;65.40
14295;BME280;7231;59.370;18.016;2023-05-25T05:18:46;101191.69;;;16.12;65.59
14295;BME280;7231;59.370;18.016;2023-05-25T05:21:14;101198.81;;;16.17;65.36
14295;BME280;7231;59.370;18.016;2023-05-25T05:23:43;101198.84;;;16.20;65.38
14295;BME280;7231;59.370;18.016;2023-05-25T05:26:11;101190.06;;;16.23;65.26
14295;BME280;7231;59.370;18.016;2023-05-25T05:28:41;101177.63;;;16.16;65.18
14295;BME280;7231;59.370;18.016;2023-05-25T05:31:09;101199.81;;;16.29;65.19
14295;BME280;7231;59.370;18.016;2023-05-25T05:33:38;101153.75;;;16.10;65.08
14295;BME280;7231;59.370;18.016;2023-05-25T05:36:07;101202.56;;;16.38;64.97
14295;BME280;7231;59.370;18.016;2023-05-25T05:38:35;101206.13;;;16.43;64.86
14295;BME280;7231;59.370;18.016;2023-05-25T05:41:06;101196.44;;;16.43;64.64
14295;BME280;7231;59.370;18.016;2023-05-25T05:43:39;101207.97;;;16.51;64.61
14295;BME280;7231;59.370;18.016;2023-05-25T05:46:08;101203.66;;;16.60;64.48
14295;BME280;7231;59.370;18.016;2023-05-25T05:48:37;101187.72;;;16.53;64.05
14295;BME280;7231;59.370;18.016;2023-05-25T05:51:05;101200.22;;;16.67;64.22
14295;BME280;7231;59.370;18.016;2023-05-25T05:53:34;101210.06;;;16.84;63.87
14295;BME280;7231;59.370;18.016;2023-05-25T05:56:02;101196.81;;;16.80;63.73
14295;BME280;7231;59.370;18.016;2023-05-25T05:58:31;101221.69;;;17.00;63.47
14295;BME280;7231;59.370;18.016;2023-05-25T06:00:59;101217.34;;;17.10;63.07
14295;BME280;7231;59.370;18.016;2023-05-25T06:03:28;101229.81;;;17.25;62.30
14295;BME280;7231;59.370;18.016;2023-05-25T06:05:56;101229.03;;;17.38;60.97
14295;BME280;7231;59.370;18.016;2023-05-25T06:08:25;101217.53;;;17.39;59.70
14295;BME280;7231;59.370;18.016;2023-05-25T06:10:54;101245.03;;;17.53;58.65
14295;BME280;7231;59.370;18.016;2023-05-25T06:13:23;101244.19;;;17.59;58.17
14295;BME280;7231;59.370;18.016;2023-05-25T06:15:51;101226.47;;;17.55;57.75
14295;BME280;7231;59.370;18.016;2023-05-25T06:18:19;101236.31;;;17.68;57.49
14295;BME280;7231;59.370;18.016;2023-05-25T06:20:47;101268.25;;;17.89;56.86
14295;BME280;7231;59.370;18.016;2023-05-25T06:23:15;101264.75;;;17.99;56.33
14295;BME280;7231;59.370;18.016;2023-05-25T06:25:44;101264.78;;;18.02;55.62
14295;BME280;7231;59.370;18.016;2023-05-25T06:28:14;101132.59;;;17.16;54.81
14295;BME280;7231;59.370;18.016;2023-05-25T06:30:42;101278.06;;;18.08;54.42
14295;BME280;7231;59.370;18.016;2023-05-25T06:33:11;101277.19;;;18.11;53.99
14295;BME280;7231;59.370;18.016;2023-05-25T06:35:39;101289.59;;;18.13;53.29
14295;BME280;7231;59.370;18.016;2023-05-25T06:38:09;101291.38;;;18.14;52.73
14295;BME280;7231;59.370;18.016;2023-05-25T06:40:38;101264.75;;;17.98;52.37
14295;BME280;7231;59.370;18.016;2023-05-25T06:43:05;101306.41;;;18.14;52.16
14295;BME280;7231;59.370;18.016;2023-05-25T06:45:35;101306.38;;;18.09;51.39
14295;BME280;7231;59.370;18.016;2023-05-25T06:48:03;101301.91;;;18.01;50.59
14295;BME280;7231;59.370;18.016;2023-05-25T06:50:31;101300.13;;;17.97;50.33
14295;BME280;7231;59.370;18.016;2023-05-25T06:52:59;101306.34;;;18.00;49.87
14295;BME280;7231;59.370;18.016;2023-05-25T06:55:27;101309.03;;;18.06;49.63
14295;BME280;7231;59.370;18.016;2023-05-25T06:57:55;101315.25;;;18.13;49.46
14295;BME280;7231;59.370;18.016;2023-05-25T07:00:23;101312.59;;;18.16;49.02
14295;BME280;7231;59.370;18.016;2023-05-25T07:02:52;101325.00;;;18.15;48.53
14295;BME280;7231;59.370;18.016;2023-05-25T07:05:20;101327.63;;;18.11;48.50
14295;BME280;7231;59.370;18.016;2023-05-25T07:07:48;101335.56;;;18.08;47.91
14295;BME280;7231;59.370;18.016;2023-05-25T07:10:16;101336.44;;;18.05;47.48
14295;BME280;7231;59.370;18.016;2023-05-25T07:12:44;101342.63;;;18.06;47.10
14295;BME280;7231;59.370;18.016;2023-05-25T07:15:16;101338.22;;;18.06;46.69
14295;BME280;7231;59.370;18.016;2023-05-25T07:17:48;101344.41;;;18.08;46.06
14295;BME280;7231;59.370;18.016;2023-05-25T07:20:21;101343.53;;;18.09;46.24
14295;BME280;7231;59.370;18.016;2023-05-25T07:22:50;101350.66;;;18.18;45.97
14295;BME280;7231;59.370;18.016;2023-05-25T07:25:19;101349.78;;;18.25;45.55
14295;BME280;7231;59.370;18.016;2023-05-25T07:27:47;101337.41;;;18.33;45.79
14295;BME280;7231;59.370;18.016;2023-05-25T07:30:15;101343.78;;;18.70;45.88
14295;BME280;7231;59.370;18.016;2023-05-25T07:32:43;101312.84;;;18.98;45.32
14295;BME280;7231;59.370;18.016;2023-05-25T07:35:12;101316.38;;;19.49;44.66
14295;BME280;7231;59.370;18.016;2023-05-25T07:37:41;101306.59;;;19.92;43.44
14295;BME280;7231;59.370;18.016;2023-05-25T07:40:10;101358.75;;;20.59;42.43
14295;BME280;7231;59.370;18.016;2023-05-25T07:42:38;101361.16;;;20.98;42.02
14295;BME280;7231;59.370;18.016;2023-05-25T07:45:06;101359.06;;;21.43;40.94
14295;BME280;7231;59.370;18.016;2023-05-25T07:47:35;101367.63;;;21.82;40.18
14295;BME280;7231;59.370;18.016;2023-05-25T07:50:03;101362.91;;;22.11;39.53
14295;BME280;7231;59.370;18.016;2023-05-25T07:52:32;101368.84;;;22.34;39.43
14295;BME280;7231;59.370;18.016;2023-05-25T07:55:02;101377.41;;;22.62;38.52
14295;BME280;7231;59.370;18.016;2023-05-25T07:57:29;101374.53;;;22.78;37.95
14295;BME280;7231;59.370;18.016;2023-05-25T07:59:58;101377.81;;;23.01;38.01
14295;BME280;7231;59.370;18.016;2023-05-25T08:02:26;101376.47;;;23.29;37.02
14295;BME280;7231;59.370;18.016;2023-05-25T08:04:54;101391.22;;;23.55;36.11
14295;BME280;7231;59.370;18.016;2023-05-25T08:07:22;101398.13;;;23.70;35.90
14295;BME280;7231;59.370;18.016;2023-05-25T08:09:51;101399.88;;;23.72;35.12
14295;BME280;7231;59.370;18.016;2023-05-25T08:12:20;101382.84;;;23.75;34.97
14295;BME280;7231;59.370;18.016;2023-05-25T08:15:08;101405.06;;;23.81;34.78
14295;BME280;7231;59.370;18.016;2023-05-25T08:17:36;101411.28;;;23.83;34.55
14295;BME280;7231;59.370;18.016;2023-05-25T08:20:06;101418.25;;;23.92;34.26
14295;BME280;7231;59.370;18.016;2023-05-25T08:22:35;101421.72;;;23.99;34.10
14295;BME280;7231;59.370;18.016;2023-05-25T08:25:04;101427.72;;;24.11;33.46
14295;BME280;7231;59.370;18.016;2023-05-25T08:27:35;101432.84;;;24.26;33.08
14295;BME280;7231;59.370;18.016;2023-05-25T08:30:03;101438.31;;;24.65;33.15
14295;BME280;7231;59.370;18.016;2023-05-25T08:32:32;101428.88;;;24.89;32.44
14295;BME280;7231;59.370;18.016;2023-05-25T08:35:00;101430.28;;;25.08;31.91
14295;BME280;7231;59.370;18.016;2023-05-25T08:37:30;101437.47;;;25.06;31.92
14295;BME280;7231;59.370;18.016;2023-05-25T08:39:58;101442.84;;;25.06;31.66
14295;BME280;7231;59.370;18.016;2023-05-25T08:42:28;101436.38;;;24.73;31.86
14295;BME280;7231;59.370;18.016;2023-05-25T08:44:57;101423.88;;;24.72;31.98
14295;BME280;7231;59.370;18.016;2023-05-25T08:47:28;101425.06;;;25.01;31.47
14295;BME280;7231;59.370;18.016;2023-05-25T08:49:59;101433.59;;;25.19;31.21
14295;BME280;7231;59.370;18.016;2023-05-25T08:52:31;101430.31;;;25.45;30.87
14295;BME280;7231;59.370;18.016;2023-05-25T08:55:03;101438.97;;;25.56;30.51
14295;BME280;7231;59.370;18.016;2023-05-25T08:57:38;101438.16;;;25.53;30.60
14295;BME280;7231;59.370;18.016;2023-05-25T09:00:13;101433.84;;;25.47;30.53
14295;BME280;7231;59.370;18.016;2023-05-25T09:02:47;101437.03;;;25.65;30.81
14295;BME280;7231;59.370;18.016;2023-05-25T09:05:17;101444.19;;;26.00;30.22
14295;BME280;7231;59.370;18.016;2023-05-25T09:07:46;101403.78;;;26.01;29.37
14295;BME280;7231;59.370;18.016;2023-05-25T09:10:15;101453.81;;;26.41;29.17
14295;BME280;7231;59.370;18.016;2023-05-25T09:12:43;101456.44;;;26.44;28.84
14295;BME280;7231;59.370;18.016;2023-05-25T09:15:13;101443.41;;;26.27;28.58
14295;BME280;7231;59.370;18.016;2023-05-25T09:17:41;101480.72;;;26.05;29.02
14295;BME280;7231;59.370;18.016;2023-05-25T09:20:10;101423.97;;;25.48;28.66
14295;BME280;7231;59.370;18.016;2023-05-25T09:22:39;101468.16;;;25.73;29.14
14295;BME280;7231;59.370;18.016;2023-05-25T09:25:09;101473.28;;;25.82;29.32
14295;BME280;7231;59.370;18.016;2023-05-25T09:27:37;101481.66;;;26.04;28.89
14295;BME280;7231;59.370;18.016;2023-05-25T09:30:06;101479.59;;;26.14;28.56
14295;BME280;7231;59.370;18.016;2023-05-25T09:32:36;101485.72;;;25.86;28.29
14295;BME280;7231;59.370;18.016;2023-05-25T09:35:08;101486.19;;;25.28;28.55
14295;BME280;7231;59.370;18.016;2023-05-25T09:37:37;101470.50;;;25.10;29.00
14295;BME280;7231;59.370;18.016;2023-05-25T09:40:06;101481.50;;;25.38;29.04
14295;BME280;7231;59.370;18.016;2023-05-25T09:42:35;101485.28;;;25.29;28.62
14295;BME280;7231;59.370;18.016;2023-05-25T09:45:04;101474.56;;;24.86;28.83
14295;BME280;7231;59.370;18.016;2023-05-25T09:47:36;101472.94;;;24.77;29.18
14295;BME280;7231;59.370;18.016;2023-05-25T09:50:05;101495.28;;;24.78;29.16
14295;BME280;7231;59.370;18.016;2023-05-25T09:52:34;101481.16;;;24.70;29.46
14295;BME280;7231;59.370;18.016;2023-05-25T09:55:03;101504.44;;;25.12;29.35
14295;BME280;7231;59.370;18.016;2023-05-25T09:57:36;101499.69;;;25.65;28.89
14295;BME280;7231;59.370;18.016;2023-05-25T10:00:05;101497.38;;;26.19;28.44
14295;BME280;7231;59.370;18.016;2023-05-25T10:02:35;101499.03;;;26.59;27.59
14295;BME280;7231;59.370;18.016;2023-05-25T10:05:04;101470.94;;;26.69;27.44
14295;BME280;7231;59.370;18.016;2023-05-25T10:07:33;101507.59;;;27.06;27.18
14295;BME280;7231;59.370;18.016;2023-05-25T10:10:05;101506.16;;;27.24;27.38
14295;BME280;7231;59.370;18.016;2023-05-25T10:12:33;101504.38;;;27.52;26.59
14295;BME280;7231;59.370;18.016;2023-05-25T10:15:03;101501.84;;;27.75;26.53
14295;BME280;7231;59.370;18.016;2023-05-25T10:17:33;101517.34;;;27.39;26.38
14295;BME280;7231;59.370;18.016;2023-05-25T10:20:06;101485.50;;;26.62;26.11
14295;BME280;7231;59.370;18.016;2023-05-25T10:22:39;101520.09;;;26.43;26.44
14295;BME280;7231;59.370;18.016;2023-05-25T10:25:16;101511.78;;;26.17;26.57
14295;BME280;7231;59.370;18.016;2023-05-25T10:27:54;101514.25;;;26.26;27.11
14295;BME280;7231;59.370;18.016;2023-05-25T10:30:25;101521.41;;;26.61;27.58
14295;BME280;7231;59.370;18.016;2023-05-25T10:32:53;101496.38;;;26.58;27.43
14295;BME280;7231;59.370;18.016;2023-05-25T10:35:24;101474.56;;;26.36;26.87
14295;BME280;7231;59.370;18.016;2023-05-25T10:37:52;101520.25;;;27.02;26.74
14295;BME280;7231;59.370;18.016;2023-05-25T10:40:22;101513.91;;;27.05;26.26
14295;BME280;7231;59.370;18.016;2023-05-25T10:42:50;101514.00;;;27.02;26.67
14295;BME280;7231;59.370;18.016;2023-05-25T10:45:18;101489.81;;;27.00;26.33
14295;BME280;7231;59.370;18.016;2023-05-25T10:47:46;101516.00;;;27.25;25.97
14295;BME280;7231;59.370;18.016;2023-05-25T10:50:21;101501.53;;;27.57;25.82
14295;BME280;7231;59.370;18.016;2023-05-25T10:52:58;101505.25;;;27.53;25.81
14295;BME280;7231;59.370;18.016;2023-05-25T10:55:27;101376.31;;;26.84;26.22
14295;BME280;7231;59.370;18.016;2023-05-25T10:58:07;101465.81;;;27.50;25.33
14295;BME280;7231;59.370;18.016;2023-05-25T11:00:36;101397.34;;;27.01;25.57
14295;BME280;7231;59.370;18.016;2023-05-25T11:03:05;101505.06;;;27.59;26.14
14295;BME280;7231;59.370;18.016;2023-05-25T11:05:37;101516.19;;;27.76;25.25
14295;BME280;7231;59.370;18.016;2023-05-25T11:08:08;101515.47;;;27.71;25.35
14295;BME280;7231;59.370;18.016;2023-05-25T11:10:50;101520.50;;;26.93;25.36
14295;BME280;7231;59.370;18.016;2023-05-25T11:13:23;101518.97;;;26.52;25.93
14295;BME280;7231;59.370;18.016;2023-05-25T11:16:21;101506.75;;;25.69;26.12
14295;BME280;7231;59.370;18.016;2023-05-25T11:18:52;101517.94;;;25.08;26.77
14295;BME280;7231;59.370;18.016;2023-05-25T11:21:22;101530.63;;;24.53;27.27
14295;BME280;7231;59.370;18.016;2023-05-25T11:23:56;101526.19;;;24.51;27.43
14295;BME280;7231;59.370;18.016;2023-05-25T11:26:27;101482.09;;;24.18;27.28
14295;BME280;7231;59.370;18.016;2023-05-25T11:28:56;101535.47;;;24.33;27.26
14295;BME280;7231;59.370;18.016;2023-05-25T11:31:30;101526.56;;;24.31;27.34
14295;BME280;7231;59.370;18.016;2023-05-25T11:34:05;101533.28;;;24.01;27.45
14295;BME280;7231;59.370;18.016;2023-05-25T11:36:35;101525.06;;;23.56;27.63
14295;BME280;7231;59.370;18.016;2023-05-25T11:39:05;101495.25;;;23.19;28.21
14295;BME280;7231;59.370;18.016;2023-05-25T11:41:48;101522.31;;;23.61;28.69
14295;BME280;7231;59.370;18.016;2023-05-25T11:44:24;101423.84;;;23.24;28.08
14295;BME280;7231;59.370;18.016;2023-05-25T11:46:54;101531.81;;;23.82;28.30
14295;BME280;7231;59.370;18.016;2023-05-25T11:49:23;101501.75;;;23.64;28.12
14295;BME280;7231;59.370;18.016;2023-05-25T11:51:52;101527.00;;;24.56;28.27
14295;BME280;7231;59.370;18.016;2023-05-25T11:54:22;101486.13;;;24.88;27.31
14295;BME280;7231;59.370;18.016;2023-05-25T11:56:51;101529.53;;;25.90;27.48
14295;BME280;7231;59.370;18.016;2023-05-25T11:59:22;101513.25;;;26.30;26.87
14295;BME280;7231;59.370;18.016;2023-05-25T12:01:55;101477.84;;;26.13;26.59
14295;BME280;7231;59.370;18.016;2023-05-25T12:04:23;101518.78;;;25.90;26.51
14295;BME280;7231;59.370;18.016;2023-05-25T12:06:51;101523.44;;;25.43;26.39
14295;BME280;7231;59.370;18.016;2023-05-25T12:09:21;101454.88;;;24.85;26.00
14295;BME280;7231;59.370;18.016;2023-05-25T12:11:50;101515.47;;;24.99;26.41
14295;BME280;7231;59.370;18.016;2023-05-25T12:14:18;101514.22;;;24.70;26.59
14295;BME280;7231;59.370;18.016;2023-05-25T12:16:46;101514.78;;;24.40;27.07
14295;BME280;7231;59.370;18.016;2023-05-25T12:19:14;101521.88;;;24.42;27.34
14295;BME280;7231;59.370;18.016;2023-05-25T12:21:43;101513.19;;;25.20;27.16
14295;BME280;7231;59.370;18.016;2023-05-25T12:24:13;101485.09;;;25.75;26.69
14295;BME280;7231;59.370;18.016;2023-05-25T12:26:50;101509.00;;;25.87;26.87
14295;BME280;7231;59.370;18.016;2023-05-25T12:29:23;101500.78;;;25.55;26.81
14295;BME280;7231;59.370;18.016;2023-05-25T12:31:52;101512.34;;;25.18;26.96
14295;BME280;7231;59.370;18.016;2023-05-25T12:34:20;101513.84;;;24.88;26.82
14295;BME280;7231;59.370;18.016;2023-05-25T12:36:49;101447.19;;;24.22;27.04
14295;BME280;7231;59.370;18.016;2023-05-25T12:39:31;101513.25;;;24.23;27.15
14295;BME280;7231;59.370;18.016;2023-05-25T12:42:02;101509.25;;;23.96;27.42
14295;BME280;7231;59.370;18.016;2023-05-25T12:44:32;101460.00;;;23.50;27.79
14295;BME280;7231;59.370;18.016;2023-05-25T12:47:09;101512.28;;;23.75;27.94
14295;BME280;7231;59.370;18.016;2023-05-25T12:49:39;101521.38;;;23.65;28.08
14295;BME280;7231;59.370;18.016;2023-05-25T12:52:08;101513.59;;;23.45;28.20
14295;BME280;7231;59.370;18.016;2023-05-25T12:54:42;101503.16;;;23.88;28.73
14295;BME280;7231;59.370;18.016;2023-05-25T12:57:13;101511.16;;;24.88;28.06
14295;BME280;7231;59.370;18.016;2023-05-25T12:59:42;101484.97;;;25.81;27.20
14295;BME280;7231;59.370;18.016;2023-05-25T13:02:12;101503.97;;;27.07;26.51
14295;BME280;7231;59.370;18.016;2023-05-25T13:04:41;101499.44;;;27.94;25.30